createdAt,value
2018-12-25T00:00:24.549Z,97079.74
2018-12-25T00:01:27.973Z,97084.89
2018-12-25T00:02:31.420Z,97081.75
2018-12-25T00:03:34.855Z,97080.20
2018-12-25T00:04:38.285Z,97079.82
2018-12-25T00:05:41.721Z,97078.06
2018-12-25T00:06:45.193Z,97087.90
2018-12-25T00:07:48.642Z,97085.28
2018-12-25T00:08:52.094Z,97088.89
2018-12-25T00:09:55.505Z,97085.13
2018-12-25T00:10:58.996Z,97081.22
2018-12-25T00:12:02.440Z,97086.44
2018-12-25T00:13:05.892Z,97085.36
2018-12-25T00:14:09.324Z,97086.59
2018-12-25T00:15:12.749Z,97090.05
2018-12-25T00:16:16.183Z,97091.81
2018-12-25T00:17:19.635Z,97095.73
2018-12-25T00:18:23.095Z,97093.52
2018-12-25T00:19:26.516Z,97098.59
2018-12-25T00:20:29.939Z,97097.73
2018-12-25T00:21:33.464Z,97104.48
2018-12-25T00:22:36.908Z,97102.78
2018-12-25T00:23:40.338Z,97102.42
2018-12-25T00:24:43.764Z,97099.56
2018-12-25T00:25:47.202Z,97104.55
2018-12-25T00:26:50.638Z,97103.94
2018-12-25T00:27:54.083Z,97106.16
2018-12-25T00:28:57.531Z,97107.38
2018-12-25T00:30:00.958Z,97110.77
2018-12-25T00:31:04.456Z,97106.39
2018-12-25T00:32:07.885Z,97111.30
2018-12-25T00:33:11.344Z,97109.23
2018-12-25T00:34:14.781Z,97112.17
2018-12-25T00:35:18.207Z,97109.02
2018-12-25T00:36:21.637Z,97112.38
2018-12-25T00:37:25.065Z,97119.30
2018-12-25T00:38:28.505Z,97119.94
2018-12-25T00:39:31.937Z,97121.53
2018-12-25T00:40:35.362Z,97120.41
2018-12-25T00:41:38.798Z,97119.48
2018-12-25T00:42:42.221Z,97116.09
2018-12-25T00:43:45.692Z,97122.38
2018-12-25T00:44:49.114Z,97128.91
2018-12-25T00:45:52.541Z,97124.06
2018-12-25T00:46:55.975Z,97122.17
2018-12-25T00:47:59.478Z,97126.16
2018-12-25T00:49:02.939Z,97126.09
2018-12-25T00:50:06.434Z,97124.00
2018-12-25T00:51:10.011Z,97125.31
2018-12-25T00:52:13.438Z,97132.70
2018-12-25T00:53:16.868Z,97134.77
2018-12-25T00:54:20.397Z,97138.76
2018-12-25T00:55:23.855Z,97134.84
2018-12-25T00:56:27.282Z,97130.99
2018-12-25T00:57:30.722Z,97133.53
2018-12-25T00:58:34.142Z,97133.28
2018-12-25T00:59:37.590Z,97139.36
2018-12-25T01:00:41.025Z,97129.86
2018-12-25T01:01:44.448Z,97127.08
2018-12-25T01:02:47.891Z,97127.77
2018-12-25T01:03:51.338Z,97126.75
2018-12-25T01:04:54.803Z,97129.30
2018-12-25T01:05:58.227Z,97127.91
2018-12-25T01:07:01.664Z,97129.06
2018-12-25T01:08:05.102Z,97131.83
2018-12-25T01:09:08.653Z,97129.14
2018-12-25T01:10:12.073Z,97129.84
2018-12-25T01:11:15.509Z,97135.53
2018-12-25T01:12:18.935Z,97124.77
2018-12-25T01:13:22.367Z,97133.14
2018-12-25T01:14:25.828Z,97135.75
2018-12-25T01:15:29.247Z,97134.84
2018-12-25T01:16:32.677Z,97138.76
2018-12-25T01:17:36.114Z,97137.13
2018-12-25T01:18:39.536Z,97133.67
2018-12-25T01:19:42.998Z,97133.77
2018-12-25T01:20:46.434Z,97136.47
2018-12-25T01:21:49.871Z,97129.77
2018-12-25T01:22:53.301Z,97133.09
2018-12-25T01:23:56.742Z,97132.84
2018-12-25T01:25:00.296Z,97131.86
2018-12-25T01:26:03.702Z,97128.70
2018-12-25T01:27:07.136Z,97123.80
2018-12-25T01:28:10.559Z,97124.54
2018-12-25T01:29:14.062Z,97127.31
2018-12-25T01:30:17.513Z,97121.77
2018-12-25T01:31:20.958Z,97124.38
2018-12-25T01:32:24.385Z,97120.70
2018-12-25T01:33:27.814Z,97115.94
2018-12-25T01:34:31.243Z,97115.70
2018-12-25T01:35:34.693Z,97112.38
2018-12-25T01:36:38.272Z,97111.39
2018-12-25T01:37:41.697Z,97112.70
2018-12-25T01:38:45.150Z,97105.95
2018-12-25T01:39:48.599Z,97100.41
2018-12-25T01:40:52.050Z,97102.63
2018-12-25T01:41:55.527Z,97097.41
2018-12-25T01:42:58.931Z,97100.62
2018-12-25T01:44:02.430Z,97094.41
2018-12-25T01:45:06.011Z,97092.13
2018-12-25T01:46:09.463Z,97089.83
2018-12-25T01:47:12.890Z,97086.73
2018-12-25T01:48:16.371Z,97085.82
2018-12-25T01:49:19.813Z,97086.84
2018-12-25T01:50:23.267Z,97086.14
2018-12-25T01:51:26.695Z,97082.83
2018-12-25T01:52:30.126Z,97077.15
2018-12-25T01:53:33.565Z,97080.45
2018-12-25T01:54:36.998Z,97075.55
2018-12-25T01:55:40.527Z,97073.87
2018-12-25T01:56:43.965Z,97074.47
2018-12-25T01:57:47.401Z,97062.48
2018-12-25T01:58:50.835Z,97061.66
2018-12-25T01:59:54.270Z,97062.48
2018-12-25T02:00:57.713Z,97057.34
2018-12-25T02:02:01.143Z,97062.97
2018-12-25T02:03:04.595Z,97054.03
2018-12-25T02:04:08.018Z,97051.03
2018-12-25T02:05:11.457Z,97054.56
2018-12-25T02:06:14.905Z,97051.74
2018-12-25T02:07:18.338Z,97050.91
2018-12-25T02:08:21.769Z,97046.08
2018-12-25T02:09:25.197Z,97048.23
2018-12-25T02:10:28.627Z,97047.14
2018-12-25T02:11:32.081Z,97042.69
2018-12-25T02:12:35.514Z,97050.00
2018-12-25T02:13:38.957Z,97049.16
2018-12-25T02:14:42.385Z,97055.38
2018-12-25T02:15:45.827Z,97054.06
2018-12-25T02:16:49.277Z,97044.31
2018-12-25T02:17:52.706Z,97041.78
2018-12-25T02:18:56.139Z,97038.27
2018-12-25T02:19:59.638Z,97041.33
2018-12-25T02:21:03.140Z,97042.53
2018-12-25T02:22:06.599Z,97044.39
2018-12-25T02:23:10.080Z,97045.14
2018-12-25T02:24:13.538Z,97045.78
2018-12-25T02:25:16.973Z,97046.84
2018-12-25T02:26:20.418Z,97050.55
2018-12-25T02:27:23.853Z,97055.77
2018-12-25T02:28:27.290Z,97051.31
2018-12-25T02:29:30.792Z,97058.13
2018-12-25T02:30:34.228Z,97055.06
2018-12-25T02:31:37.688Z,97060.08
2018-12-25T02:32:41.129Z,97061.59
2018-12-25T02:33:44.549Z,97074.34
2018-12-25T02:34:48.056Z,97067.35
2018-12-25T02:35:51.547Z,97082.73
2018-12-25T02:36:55.001Z,97079.56
2018-12-25T02:37:58.432Z,97085.34
2018-12-25T02:39:01.863Z,97089.25
2018-12-25T02:40:05.668Z,97087.17
2018-12-25T02:41:09.100Z,97097.23
2018-12-25T02:42:12.554Z,97100.83
2018-12-25T02:43:15.983Z,97103.37
2018-12-25T02:44:19.486Z,97101.53
2018-12-25T02:45:22.918Z,97094.94
2018-12-25T02:46:26.357Z,97096.53
2018-12-25T02:47:29.813Z,97102.20
2018-12-25T02:48:33.241Z,97099.14
2018-12-25T02:49:36.679Z,97097.91
2018-12-25T02:50:40.100Z,97095.08
2018-12-25T02:51:43.533Z,97096.70
2018-12-25T02:52:46.980Z,97091.41
2018-12-25T02:53:50.415Z,97092.40
2018-12-25T02:54:53.839Z,97087.56
2018-12-25T02:55:57.273Z,97094.23
2018-12-25T02:57:00.729Z,97085.45
2018-12-25T02:58:04.228Z,97085.98
2018-12-25T02:59:07.670Z,97088.59
2018-12-25T03:00:11.241Z,97085.28
2018-12-25T03:01:14.675Z,97077.34
2018-12-25T03:02:18.139Z,97083.38
2018-12-25T03:03:21.632Z,97081.75
2018-12-25T03:04:25.069Z,97083.38
2018-12-25T03:05:28.495Z,97085.21
2018-12-25T03:06:31.928Z,97078.47
2018-12-25T03:07:35.447Z,97081.50
2018-12-25T03:08:38.896Z,97079.63
2018-12-25T03:09:42.316Z,97085.62
2018-12-25T03:10:45.802Z,97079.88
2018-12-25T03:11:49.236Z,97082.95
2018-12-25T03:12:52.759Z,97090.00
2018-12-25T03:13:56.203Z,97091.30
2018-12-25T03:14:59.679Z,97085.56
2018-12-25T03:16:03.120Z,97084.56
2018-12-25T03:17:06.565Z,97084.50
2018-12-25T03:18:10.020Z,97088.70
2018-12-25T03:19:13.454Z,97085.88
2018-12-25T03:20:16.895Z,97081.71
2018-12-25T03:21:20.339Z,97075.58
2018-12-25T03:22:23.826Z,97072.96
2018-12-25T03:23:27.282Z,97073.03
2018-12-25T03:24:30.720Z,97067.60
2018-12-25T03:25:34.217Z,97078.57
2018-12-25T03:26:37.665Z,97079.73
2018-12-25T03:27:41.085Z,97079.53
2018-12-25T03:28:44.544Z,97086.69
2018-12-25T03:29:48.009Z,97077.38
2018-12-25T03:30:51.454Z,97082.80
2018-12-25T03:31:54.901Z,97076.03
2018-12-25T03:32:58.572Z,97075.86
2018-12-25T03:34:01.949Z,97082.00
2018-12-25T03:35:05.518Z,97082.21
2018-12-25T03:36:08.959Z,97079.98
2018-12-25T03:37:12.461Z,97081.86
2018-12-25T03:38:15.904Z,97082.03
2018-12-25T03:39:19.340Z,97084.11
2018-12-25T03:40:22.773Z,97086.64
2018-12-25T03:41:26.456Z,97089.72
2018-12-25T03:42:29.884Z,97092.33
2018-12-25T03:43:33.331Z,97094.16
2018-12-25T03:44:36.757Z,97097.83
2018-12-25T03:45:40.189Z,97094.23
2018-12-25T03:46:43.626Z,97093.70
2018-12-25T03:47:47.073Z,97084.50
2018-12-25T03:48:50.529Z,97092.69
2018-12-25T03:49:53.960Z,97085.80
2018-12-25T03:50:57.392Z,97083.02
2018-12-25T03:52:00.829Z,97078.81
2018-12-25T03:53:04.258Z,97087.89
2018-12-25T03:54:07.712Z,97094.97
2018-12-25T03:55:11.152Z,97090.89
2018-12-25T03:56:14.577Z,97089.05
2018-12-25T03:57:18.019Z,97093.21
2018-12-25T03:58:21.531Z,97093.95
2018-12-25T03:59:24.993Z,97094.59
2018-12-25T04:00:28.496Z,97088.45
2018-12-25T04:01:32.068Z,97092.66
2018-12-25T04:02:35.503Z,97095.58
2018-12-25T04:03:38.938Z,97087.99
2018-12-25T04:04:42.398Z,97093.56
2018-12-25T04:05:45.821Z,97095.19
2018-12-25T04:06:49.256Z,97094.20
2018-12-25T04:07:52.691Z,97093.28
2018-12-25T04:08:56.165Z,97089.05
2018-12-25T04:09:59.599Z,97089.66
2018-12-25T04:11:03.039Z,97088.66
2018-12-25T04:12:06.476Z,97091.41
2018-12-25T04:13:09.911Z,97090.78
2018-12-25T04:14:13.368Z,97088.23
2018-12-25T04:15:16.819Z,97083.55
2018-12-25T04:16:20.224Z,97081.96
2018-12-25T04:17:23.662Z,97090.00
2018-12-25T04:18:27.091Z,97090.92
2018-12-25T04:19:30.546Z,97087.33
2018-12-25T04:20:33.985Z,97095.62
2018-12-25T04:21:37.418Z,97095.48
2018-12-25T04:22:40.857Z,97094.00
2018-12-25T04:23:44.296Z,97089.48
2018-12-25T04:24:47.759Z,97090.27
2018-12-25T04:25:51.194Z,97088.96
2018-12-25T04:26:54.626Z,97092.09
2018-12-25T04:27:58.067Z,97092.49
2018-12-25T04:29:01.511Z,97089.03
2018-12-25T04:30:05.812Z,97087.20
2018-12-25T04:31:09.257Z,97089.80
2018-12-25T04:32:12.701Z,97097.84
2018-12-25T04:33:16.127Z,97093.41
2018-12-25T04:34:19.563Z,97097.78
2018-12-25T04:35:23.010Z,97102.08
2018-12-25T04:36:26.511Z,97099.09
2018-12-25T04:37:30.015Z,97102.69
2018-12-25T04:38:33.470Z,97099.34
2018-12-25T04:39:36.906Z,97100.79
2018-12-25T04:40:40.386Z,97100.27
2018-12-25T04:41:43.817Z,97101.48
2018-12-25T04:42:47.249Z,97100.25
2018-12-25T04:43:50.683Z,97101.23
2018-12-25T04:44:54.122Z,97102.63
2018-12-25T04:45:57.576Z,97096.63
2018-12-25T04:47:01.008Z,97098.56
2018-12-25T04:48:04.510Z,97102.80
2018-12-25T04:49:07.939Z,97104.37
2018-12-25T04:50:11.388Z,97110.62
2018-12-25T04:51:14.814Z,97105.23
2018-12-25T04:52:18.245Z,97096.56
2018-12-25T04:53:21.675Z,97103.71
2018-12-25T04:54:25.114Z,97100.18
2018-12-25T04:55:28.571Z,97096.55
2018-12-25T04:56:32.018Z,97099.02
2018-12-25T04:57:35.520Z,97098.39
2018-12-25T04:58:38.955Z,97101.31
2018-12-25T04:59:42.386Z,97095.50
2018-12-25T05:00:45.843Z,97097.86
2018-12-25T05:01:49.282Z,97092.64
2018-12-25T05:02:52.712Z,97088.59
2018-12-25T05:03:56.142Z,97093.81
2018-12-25T05:04:59.580Z,97092.97
2018-12-25T05:06:03.111Z,97094.66
2018-12-25T05:07:06.538Z,97095.96
2018-12-25T05:08:10.048Z,97099.34
2018-12-25T05:09:13.565Z,97096.67
2018-12-25T05:10:17.010Z,97096.88
2018-12-25T05:11:20.464Z,97099.95
2018-12-25T05:12:23.895Z,97093.42
2018-12-25T05:13:27.339Z,97108.09
2018-12-25T05:14:30.770Z,97102.23
2018-12-25T05:15:34.261Z,97104.70
2018-12-25T05:16:37.720Z,97107.38
2018-12-25T05:17:41.292Z,97111.22
2018-12-25T05:18:44.722Z,97104.91
2018-12-25T05:19:48.150Z,97106.08
2018-12-25T05:20:51.602Z,97101.56
2018-12-25T05:21:55.058Z,97106.32
2018-12-25T05:22:58.486Z,97108.30
2018-12-25T05:24:01.914Z,97105.48
2018-12-25T05:25:05.484Z,97103.39
2018-12-25T05:26:08.942Z,97103.55
2018-12-25T05:27:12.366Z,97102.23
2018-12-25T05:28:15.795Z,97097.94
2018-12-25T05:29:19.375Z,97093.95
2018-12-25T05:30:22.810Z,97098.95
2018-12-25T05:31:26.264Z,97095.43
2018-12-25T05:32:29.700Z,97095.96
2018-12-25T05:33:33.139Z,97087.67
2018-12-25T05:34:36.570Z,97094.12
2018-12-25T05:35:40.028Z,97100.20
2018-12-25T05:36:43.458Z,97098.78
2018-12-25T05:37:46.900Z,97104.95
2018-12-25T05:38:50.329Z,97109.61
2018-12-25T05:39:53.764Z,97101.03
2018-12-25T05:40:57.203Z,97111.75
2018-12-25T05:42:00.642Z,97109.77
2018-12-25T05:43:04.077Z,97108.53
2018-12-25T05:44:07.517Z,97106.92
2018-12-25T05:45:10.956Z,97107.24
2018-12-25T05:46:14.430Z,97108.77
2018-12-25T05:47:17.947Z,97109.54
2018-12-25T05:48:21.395Z,97112.67
2018-12-25T05:49:24.812Z,97116.39
2018-12-25T05:50:28.532Z,97118.53
2018-12-25T05:51:31.968Z,97118.29
2018-12-25T05:52:35.426Z,97122.77
2018-12-25T05:53:38.861Z,97120.83
2018-12-25T05:54:42.302Z,97119.92
2018-12-25T05:55:45.734Z,97119.39
2018-12-25T05:56:49.330Z,97116.84
2018-12-25T05:57:52.766Z,97118.92
2018-12-25T05:58:56.188Z,97117.91
2018-12-25T05:59:59.636Z,97117.16
2018-12-25T06:01:03.067Z,97117.30
2018-12-25T06:02:06.516Z,97122.77
2018-12-25T06:03:09.953Z,97124.61
2018-12-25T06:04:13.392Z,97125.67
2018-12-25T06:05:16.827Z,97129.13
2018-12-25T06:06:20.266Z,97119.92
2018-12-25T06:07:23.716Z,97125.20
2018-12-25T06:08:27.153Z,97124.74
2018-12-25T06:09:30.591Z,97123.83
2018-12-25T06:10:34.153Z,97127.49
2018-12-25T06:11:37.582Z,97131.26
2018-12-25T06:12:41.031Z,97125.97
2018-12-25T06:13:44.467Z,97122.77
2018-12-25T06:14:47.907Z,97121.45
2018-12-25T06:15:51.339Z,97118.08
2018-12-25T06:16:54.772Z,97121.45
2018-12-25T06:17:58.224Z,97113.25
2018-12-25T06:19:01.659Z,97111.70
2018-12-25T06:20:05.834Z,97113.14
2018-12-25T06:21:09.320Z,97116.38
2018-12-25T06:22:12.749Z,97117.05
2018-12-25T06:23:16.199Z,97117.83
2018-12-25T06:24:19.631Z,97115.68
2018-12-25T06:25:23.141Z,97116.13
2018-12-25T06:26:26.586Z,97119.77
2018-12-25T06:27:30.023Z,97114.37
2018-12-25T06:28:33.474Z,97111.30
2018-12-25T06:29:36.907Z,97105.61
2018-12-25T06:30:40.355Z,97107.00
2018-12-25T06:31:43.784Z,97104.55
2018-12-25T06:32:47.236Z,97105.09
2018-12-25T06:33:50.665Z,97099.94
2018-12-25T06:34:54.093Z,97105.22
2018-12-25T06:35:57.530Z,97104.70
2018-12-25T06:37:00.967Z,97098.03
2018-12-25T06:38:04.410Z,97101.84
2018-12-25T06:39:07.843Z,97105.75
2018-12-25T06:40:11.282Z,97102.92
2018-12-25T06:41:14.716Z,97104.91
2018-12-25T06:42:18.151Z,97104.23
2018-12-25T06:43:21.614Z,97098.55
2018-12-25T06:44:25.041Z,97102.22
2018-12-25T06:45:28.476Z,97102.40
2018-12-25T06:46:31.910Z,97102.92
2018-12-25T06:47:35.340Z,97104.37
2018-12-25T06:48:38.796Z,97108.53
2018-12-25T06:49:42.309Z,97113.23
2018-12-25T06:50:45.736Z,97107.61
2018-12-25T06:51:49.171Z,97112.13
2018-12-25T06:52:52.603Z,97108.34
2018-12-25T06:53:56.054Z,97111.27
2018-12-25T06:54:59.483Z,97106.76
2018-12-25T06:56:02.919Z,97111.86
2018-12-25T06:57:06.350Z,97108.58
2018-12-25T06:58:09.778Z,97103.64
2018-12-25T06:59:13.236Z,97101.53
2018-12-25T07:00:16.739Z,97102.73
2018-12-25T07:01:20.175Z,97102.00
2018-12-25T07:02:23.612Z,97098.38
2018-12-25T07:03:27.066Z,97098.47
2018-12-25T07:04:30.516Z,97097.17
2018-12-25T07:05:33.946Z,97092.41
2018-12-25T07:06:37.378Z,97095.70
2018-12-25T07:07:40.806Z,97090.80
2018-12-25T07:08:44.280Z,97083.41
2018-12-25T07:09:47.692Z,97088.11
2018-12-25T07:10:51.127Z,97087.55
2018-12-25T07:11:54.631Z,97094.06
2018-12-25T07:12:58.061Z,97097.17
2018-12-25T07:14:01.513Z,97095.62
2018-12-25T07:15:05.099Z,97093.25
2018-12-25T07:16:08.543Z,97093.08
2018-12-25T07:17:11.987Z,97099.66
2018-12-25T07:18:15.405Z,97098.36
2018-12-25T07:19:18.869Z,97100.50
2018-12-25T07:20:22.312Z,97096.31
2018-12-25T07:21:25.734Z,97099.38
2018-12-25T07:22:29.162Z,97098.36
2018-12-25T07:23:32.602Z,97092.86
2018-12-25T07:24:36.073Z,97093.01
2018-12-25T07:25:39.511Z,97082.97
2018-12-25T07:26:42.945Z,97083.63
2018-12-25T07:27:46.384Z,97071.81
2018-12-25T07:28:49.819Z,97078.12
2018-12-25T07:29:53.261Z,97075.05
2018-12-25T07:30:56.693Z,97078.96
2018-12-25T07:32:00.132Z,97074.88
2018-12-25T07:33:03.567Z,97077.48
2018-12-25T07:34:07.003Z,97077.81
2018-12-25T07:35:10.470Z,97076.05
2018-12-25T07:36:13.902Z,97078.97
2018-12-25T07:37:17.343Z,97079.25
2018-12-25T07:38:20.784Z,97082.95
2018-12-25T07:39:24.219Z,97079.88
2018-12-25T07:40:27.679Z,97085.38
2018-12-25T07:41:32.996Z,97086.93
2018-12-25T07:42:36.265Z,97089.48
2018-12-25T07:43:39.705Z,97089.48
2018-12-25T07:44:43.226Z,97089.03
2018-12-25T07:45:46.664Z,97091.64
2018-12-25T07:46:50.098Z,97093.25
2018-12-25T07:47:53.523Z,97091.24
2018-12-25T07:48:56.955Z,97090.86
2018-12-25T07:50:00.409Z,97094.55
2018-12-25T07:51:03.942Z,97087.33
2018-12-25T07:52:07.363Z,97090.23
2018-12-25T07:53:10.794Z,97085.70
2018-12-25T07:54:14.223Z,97087.63
2018-12-25T07:55:17.694Z,97088.22
2018-12-25T07:56:21.141Z,97094.21
2018-12-25T07:57:24.564Z,97092.13
2018-12-25T07:58:27.994Z,97086.91
2018-12-25T07:59:31.434Z,97081.23
2018-12-25T08:00:34.893Z,97078.25
2018-12-25T08:01:38.328Z,97074.27
2018-12-25T08:02:41.760Z,97073.89
2018-12-25T08:03:45.191Z,97068.53
2018-12-25T08:04:48.618Z,97067.44
2018-12-25T08:05:53.462Z,97069.44
2018-12-25T08:06:57.017Z,97076.23
2018-12-25T08:08:00.462Z,97077.33
2018-12-25T08:09:05.462Z,97079.01
2018-12-25T08:10:08.925Z,97079.08
2018-12-25T08:11:12.371Z,97087.76
2018-12-25T08:12:15.852Z,97087.36
2018-12-25T08:13:19.281Z,97088.52
2018-12-25T08:14:22.715Z,97095.03
2018-12-25T08:15:26.166Z,97091.48
2018-12-25T08:16:29.603Z,97094.95
2018-12-25T08:17:33.033Z,97095.45
2018-12-25T08:18:36.535Z,97100.17
2018-12-25T08:19:39.970Z,97097.30
2018-12-25T08:20:43.446Z,97095.45
2018-12-25T08:21:46.882Z,97099.95
2018-12-25T08:22:50.320Z,97101.11
2018-12-25T08:23:53.825Z,97099.71
2018-12-25T08:24:57.260Z,97099.56
2018-12-25T08:26:00.711Z,97104.39
2018-12-25T08:27:04.208Z,97101.33
2018-12-25T08:28:07.644Z,97101.79
2018-12-25T08:29:11.069Z,97098.97
2018-12-25T08:30:14.511Z,97098.87
2018-12-25T08:31:17.976Z,97101.34
2018-12-25T08:32:21.406Z,97098.42
2018-12-25T08:33:24.841Z,97105.44
2018-12-25T08:34:28.276Z,97106.50
2018-12-25T08:35:31.715Z,97106.43
2018-12-25T08:36:36.491Z,97115.25
2018-12-25T08:37:39.983Z,97106.83
2018-12-25T08:38:43.409Z,97114.34
2018-12-25T08:39:46.839Z,97113.19
2018-12-25T08:40:50.376Z,97117.80
2018-12-25T08:41:53.907Z,97113.58
2018-12-25T08:42:57.340Z,97126.34
2018-12-25T08:44:00.766Z,97125.50
2018-12-25T08:45:04.272Z,97123.88
2018-12-25T08:46:07.705Z,97124.34
2018-12-25T08:47:11.682Z,97125.19
2018-12-25T08:48:15.235Z,97131.77
2018-12-25T08:49:18.664Z,97132.47
2018-12-25T08:50:22.188Z,97132.93
2018-12-25T08:51:25.619Z,97133.70
2018-12-25T08:52:29.053Z,97131.25
2018-12-25T08:53:32.494Z,97139.39
2018-12-25T08:54:35.937Z,97137.38
2018-12-25T08:55:39.550Z,97139.98
2018-12-25T08:56:42.978Z,97137.97
2018-12-25T08:57:46.425Z,97133.92
2018-12-25T08:58:49.852Z,97121.85
2018-12-25T08:59:53.278Z,97145.28
2018-12-25T09:00:56.723Z,97140.31
2018-12-25T09:02:00.169Z,97144.42
2018-12-25T09:03:03.599Z,97145.45
2018-12-25T09:04:07.103Z,97143.23
2018-12-25T09:05:10.532Z,97142.14
2018-12-25T09:06:13.970Z,97146.14
2018-12-25T09:07:17.431Z,97145.92
2018-12-25T09:08:20.869Z,97148.81
2018-12-25T09:09:24.378Z,97153.22
2018-12-25T09:10:27.814Z,97153.22
2018-12-25T09:11:31.240Z,97148.75
2018-12-25T09:12:34.693Z,97148.22
2018-12-25T09:13:38.127Z,97145.15
2018-12-25T09:14:41.559Z,97145.92
2018-12-25T09:15:44.989Z,97149.21
2018-12-25T09:16:48.424Z,97151.75
2018-12-25T09:17:51.878Z,97150.30
2018-12-25T09:18:55.306Z,97151.61
2018-12-25T09:19:58.808Z,97153.97
2018-12-25T09:21:02.322Z,97151.98
2018-12-25T09:22:05.760Z,97143.37
2018-12-25T09:23:09.213Z,97145.45
2018-12-25T09:24:12.653Z,97148.90
2018-12-25T09:25:16.180Z,97147.28
2018-12-25T09:26:19.587Z,97145.34
2018-12-25T09:27:23.048Z,97150.22
2018-12-25T09:28:26.482Z,97150.22
2018-12-25T09:29:29.919Z,97145.46
2018-12-25T09:30:33.358Z,97153.97
2018-12-25T09:31:36.794Z,97152.67
2018-12-25T09:32:40.267Z,97151.27
2018-12-25T09:33:43.699Z,97148.53
2018-12-25T09:34:48.056Z,97141.17
2018-12-25T09:35:51.545Z,97138.94
2018-12-25T09:36:54.976Z,97131.33
2018-12-25T09:37:58.440Z,97129.70
2018-12-25T09:39:01.883Z,97130.08
2018-12-25T09:40:07.258Z,97124.33
2018-12-25T09:41:10.691Z,97132.09
2018-12-25T09:42:14.151Z,97128.57
2018-12-25T09:43:17.598Z,97132.88
2018-12-25T09:44:21.032Z,97127.87
2018-12-25T09:45:24.469Z,97133.02
2018-12-25T09:46:27.898Z,97135.69
2018-12-25T09:47:31.336Z,97133.54
2018-12-25T09:48:34.795Z,97133.41
2018-12-25T09:49:38.231Z,97129.88
2018-12-25T09:50:41.808Z,97128.78
2018-12-25T09:51:45.254Z,97131.86
2018-12-25T09:52:48.681Z,97126.35
2018-12-25T09:53:52.139Z,97128.58
2018-12-25T09:54:55.570Z,97121.74
2018-12-25T09:55:59.006Z,97134.72
2018-12-25T09:57:02.452Z,97132.50
2018-12-25T09:58:05.928Z,97138.88
2018-12-25T09:59:09.368Z,97138.67
2018-12-25T10:00:12.882Z,97140.23
2018-12-25T10:01:16.391Z,97144.78
2018-12-25T10:02:19.832Z,97141.70
2018-12-25T10:03:23.283Z,97141.89
2018-12-25T10:04:26.709Z,97147.01
2018-12-25T10:05:30.150Z,97139.91
2018-12-25T10:06:33.590Z,97140.65
2018-12-25T10:07:37.087Z,97147.63
2018-12-25T10:08:40.573Z,97149.58
2018-12-25T10:09:44.038Z,97144.67
2018-12-25T10:10:47.469Z,97154.16
2018-12-25T10:11:50.892Z,97149.72
2018-12-25T10:12:54.392Z,97147.56
2018-12-25T10:13:57.843Z,97150.63
2018-12-25T10:15:01.285Z,97146.47
2018-12-25T10:16:04.720Z,97145.08
2018-12-25T10:17:08.162Z,97140.33
2018-12-25T10:18:11.610Z,97140.33
2018-12-25T10:19:15.071Z,97133.48
2018-12-25T10:20:18.497Z,97144.84
2018-12-25T10:21:21.935Z,97144.38
2018-12-25T10:22:25.435Z,97146.30
2018-12-25T10:23:28.942Z,97143.45
2018-12-25T10:24:32.394Z,97146.83
2018-12-25T10:25:35.822Z,97152.13
2018-12-25T10:26:39.253Z,97149.15
2018-12-25T10:27:42.688Z,97156.52
2018-12-25T10:28:46.127Z,97163.35
2018-12-25T10:29:49.582Z,97161.41
2018-12-25T10:30:53.012Z,97159.81
2018-12-25T10:31:56.445Z,97153.38
2018-12-25T10:32:59.874Z,97145.55
2018-12-25T10:34:03.331Z,97147.45
2018-12-25T10:35:06.899Z,97147.39
2018-12-25T10:36:10.349Z,97137.80
2018-12-25T10:37:13.780Z,97141.17
2018-12-25T10:38:17.208Z,97136.16
2018-12-25T10:39:20.741Z,97133.48
2018-12-25T10:40:24.157Z,97124.67
2018-12-25T10:41:27.600Z,97121.81
2018-12-25T10:42:31.060Z,97119.77
2018-12-25T10:43:34.967Z,97117.30
2018-12-25T10:44:38.491Z,97118.22
2018-12-25T10:45:41.930Z,97111.84
2018-12-25T10:46:45.428Z,97108.70
2018-12-25T10:47:48.863Z,97112.54
2018-12-25T10:48:52.364Z,97114.63
2018-12-25T10:49:55.822Z,97119.45
2018-12-25T10:50:59.257Z,97119.83
2018-12-25T10:52:02.700Z,97114.08
2018-12-25T10:53:06.121Z,97110.45
2018-12-25T10:54:09.612Z,97109.85
2018-12-25T10:55:13.132Z,97114.08
2018-12-25T10:56:16.654Z,97111.54
2018-12-25T10:57:20.091Z,97116.38
2018-12-25T10:58:23.604Z,97111.23
2018-12-25T10:59:27.171Z,97103.09
2018-12-25T11:00:33.061Z,97100.72
2018-12-25T11:01:36.494Z,97089.82
2018-12-25T11:02:39.921Z,97082.59
2018-12-25T11:03:43.353Z,97088.05
2018-12-25T11:04:46.797Z,97087.35
2018-12-25T11:05:50.249Z,97086.97
2018-12-25T11:06:53.685Z,97079.77
2018-12-25T11:07:57.128Z,97079.14
2018-12-25T11:09:00.564Z,97063.66
2018-12-25T11:10:05.254Z,97056.49
2018-12-25T11:11:08.711Z,97055.44
2018-12-25T11:12:12.155Z,97054.20
2018-12-25T11:13:15.608Z,97046.66
2018-12-25T11:14:19.053Z,97051.06
2018-12-25T11:15:22.493Z,97049.66
2018-12-25T11:16:25.927Z,97050.81
2018-12-25T11:17:29.368Z,97051.87
2018-12-25T11:18:32.799Z,97055.97
2018-12-25T11:19:36.231Z,97063.62
2018-12-25T11:20:39.753Z,97069.22
2018-12-25T11:21:43.294Z,97069.99
2018-12-25T11:22:46.730Z,97076.30
2018-12-25T11:23:50.167Z,97072.20
2018-12-25T11:24:53.601Z,97064.45
2018-12-25T11:25:57.052Z,97067.44
2018-12-25T11:27:00.481Z,97075.33
2018-12-25T11:28:03.922Z,97073.75
2018-12-25T11:29:07.352Z,97072.91
2018-12-25T11:30:10.784Z,97070.30
2018-12-25T11:31:14.245Z,97071.43
2018-12-25T11:32:17.673Z,97078.20
2018-12-25T11:33:21.108Z,97078.06
2018-12-25T11:34:24.537Z,97071.67
2018-12-25T11:35:27.965Z,97068.36
2018-12-25T11:36:31.418Z,97067.05
2018-12-25T11:37:34.851Z,97067.51
2018-12-25T11:38:38.289Z,97063.36
2018-12-25T11:39:41.721Z,97065.79
2018-12-25T11:40:45.224Z,97062.27
2018-12-25T11:41:48.675Z,97059.05
2018-12-25T11:42:52.115Z,97061.35
2018-12-25T11:43:55.554Z,97055.67
2018-12-25T11:44:58.987Z,97060.29
2018-12-25T11:46:02.416Z,97059.98
2018-12-25T11:47:05.870Z,97056.99
2018-12-25T11:48:09.304Z,97056.68
2018-12-25T11:49:12.753Z,97057.52
2018-12-25T11:50:16.180Z,97055.73
2018-12-25T11:51:19.636Z,97065.09
2018-12-25T11:52:28.338Z,97062.70
2018-12-25T11:53:28.218Z,97063.48
2018-12-25T11:54:31.716Z,97068.42
2018-12-25T11:55:35.148Z,97071.27
2018-12-25T11:56:38.608Z,97078.03
2018-12-25T11:57:42.042Z,97076.84
2018-12-25T11:58:45.548Z,97083.89
2018-12-25T11:59:48.977Z,97084.36
2018-12-25T12:00:52.405Z,97086.83
2018-12-25T12:01:55.858Z,97084.06
2018-12-25T12:02:59.292Z,97076.70
2018-12-25T12:04:02.718Z,97075.95
2018-12-25T12:05:06.302Z,97079.80
2018-12-25T12:06:09.737Z,97077.88
2018-12-25T12:07:13.186Z,97081.32
2018-12-25T12:08:16.615Z,97085.30
2018-12-25T12:09:20.055Z,97076.70
2018-12-25T12:10:23.496Z,97077.79
2018-12-25T12:11:26.932Z,97086.67
2018-12-25T12:12:30.385Z,97086.52
2018-12-25T12:13:33.813Z,97088.73
2018-12-25T12:14:37.240Z,97093.56
2018-12-25T12:15:40.683Z,97102.48
2018-12-25T12:16:44.107Z,97102.17
2018-12-25T12:17:47.560Z,97108.16
2018-12-25T12:18:50.999Z,97100.95
2018-12-25T12:19:54.420Z,97107.19
2018-12-25T12:20:57.865Z,97105.02
2018-12-25T12:22:01.315Z,97109.98
2018-12-25T12:23:04.761Z,97112.53
2018-12-25T12:24:08.191Z,97110.02
2018-12-25T12:25:11.626Z,97108.79